Forside
METAR-TAF:

METAR-TAF

Lufthavne :

Trollhättan-Vänersborg, Sverige

Breddekreds: 58-19N, længdekreds: 012-21E, højde: 41 m

Aktuelle vejr

Denne rapport blev lavet for 26 minutter siden, kl. 19:50 UTC
Vind 17 kt fra vestsydvest
Temperatur 5°C
Fugtighed 70%
Tryk 990 hPa
Sigt 10 km eller mere

METAR: ESGT 221950Z AUTO 24017KT 9999 FEW030/// 05/M00 Q0990

Tid: 21:16 (20:16 UTC)


TAF: fraværende

Vejrobservationer og prognoser fra mere end 4000 lufthavne (METAR og TAF).

De gule og røde prikker repræsenterer de meteorologiske stationer.

Flyt musen over at se navnet på stationen.

Så klik over at se vejr observationer og prognoser.

At skifte det kort: Klik på de grønne knapper med et sort kors for at zoome ind; på den grønne knap med en bindestreg for at zoome ud; eller på de grønne pile for tilstødende kort.


METAR-TAF: